sensor_id;sensor_type;location;lat;lon;timestamp;temperature;humidity
12049;DHT22;6085;49.452;8.502;2023-05-02T00:01:36;13.10;99.90
12049;DHT22;6085;49.452;8.502;2023-05-02T00:05:38;13.00;99.90
12049;DHT22;6085;49.452;8.502;2023-05-02T00:09:40;13.00;99.90
12049;DHT22;6085;49.452;8.502;2023-05-02T00:13:43;12.90;99.90
12049;DHT22;6085;49.452;8.502;2023-05-02T00:17:46;12.70;99.90
12049;DHT22;6085;49.452;8.502;2023-05-02T00:21:48;12.60;99.90
12049;DHT22;6085;49.452;8.502;2023-05-02T00:25:50;12.50;99.90
12049;DHT22;6085;49.452;8.502;2023-05-02T00:29:53;12.20;99.90
12049;DHT22;6085;49.452;8.502;2023-05-02T00:33:56;12.10;99.90
12049;DHT22;6085;49.452;8.502;2023-05-02T00:37:58;12.00;99.90
12049;DHT22;6085;49.452;8.502;2023-05-02T00:42:00;11.90;99.90
12049;DHT22;6085;49.452;8.502;2023-05-02T00:46:02;11.90;99.90
12049;DHT22;6085;49.452;8.502;2023-05-02T00:50:07;11.80;99.90
12049;DHT22;6085;49.452;8.502;2023-05-02T00:54:09;11.70;99.90
12049;DHT22;6085;49.452;8.502;2023-05-02T00:58:13;11.40;99.90
12049;DHT22;6085;49.452;8.502;2023-05-02T01:02:25;11.10;99.90
12049;DHT22;6085;49.452;8.502;2023-05-02T01:06:43;10.90;99.90
12049;DHT22;6085;49.452;8.502;2023-05-02T01:10:54;10.80;99.90
12049;DHT22;6085;49.452;8.502;2023-05-02T01:14:58;10.70;99.90
12049;DHT22;6085;49.452;8.502;2023-05-02T01:19:05;10.70;99.90
12049;DHT22;6085;49.452;8.502;2023-05-02T01:23:16;10.70;99.90
12049;DHT22;6085;49.452;8.502;2023-05-02T01:27:30;10.70;99.90
12049;DHT22;6085;49.452;8.502;2023-05-02T01:31:39;10.70;99.90
12049;DHT22;6085;49.452;8.502;2023-05-02T01:35:42;10.70;99.90
12049;DHT22;6085;49.452;8.502;2023-05-02T01:39:45;10.70;99.90
12049;DHT22;6085;49.452;8.502;2023-05-02T01:43:49;10.60;99.90
12049;DHT22;6085;49.452;8.502;2023-05-02T01:47:53;10.40;99.90
12049;DHT22;6085;49.452;8.502;2023-05-02T01:51:56;10.40;99.90
12049;DHT22;6085;49.452;8.502;2023-05-02T01:56:03;10.30;99.90
12049;DHT22;6085;49.452;8.502;2023-05-02T02:00:07;10.30;99.90
12049;DHT22;6085;49.452;8.502;2023-05-02T02:04:13;10.50;99.90
12049;DHT22;6085;49.452;8.502;2023-05-02T02:08:15;10.50;99.90
12049;DHT22;6085;49.452;8.502;2023-05-02T02:12:23;10.30;99.90
12049;DHT22;6085;49.452;8.502;2023-05-02T02:16:30;10.10;99.90
12049;DHT22;6085;49.452;8.502;2023-05-02T02:20:35;9.90;99.90
12049;DHT22;6085;49.452;8.502;2023-05-02T02:24:38;9.60;99.90
12049;DHT22;6085;49.452;8.502;2023-05-02T02:28:41;9.40;99.90
12049;DHT22;6085;49.452;8.502;2023-05-02T02:32:43;9.30;99.90
12049;DHT22;6085;49.452;8.502;2023-05-02T02:36:52;9.20;99.90
12049;DHT22;6085;49.452;8.502;2023-05-02T02:40:59;9.10;99.90
12049;DHT22;6085;49.452;8.502;2023-05-02T02:45:13;9.10;99.90
12049;DHT22;6085;49.452;8.502;2023-05-02T02:49:26;9.10;99.90
12049;DHT22;6085;49.452;8.502;2023-05-02T02:53:41;9.00;99.90
12049;DHT22;6085;49.452;8.502;2023-05-02T02:57:50;8.90;99.90
12049;DHT22;6085;49.452;8.502;2023-05-02T03:02:01;8.80;99.90
12049;DHT22;6085;49.452;8.502;2023-05-02T03:06:04;8.70;99.90
12049;DHT22;6085;49.452;8.502;2023-05-02T03:10:08;8.50;99.90
12049;DHT22;6085;49.452;8.502;2023-05-02T03:14:11;8.40;99.90
12049;DHT22;6085;49.452;8.502;2023-05-02T03:18:13;8.30;99.90
12049;DHT22;6085;49.452;8.502;2023-05-02T03:22:15;8.20;99.90
12049;DHT22;6085;49.452;8.502;2023-05-02T03:26:18;8.10;99.90
12049;DHT22;6085;49.452;8.502;2023-05-02T03:30:20;8.00;99.90
12049;DHT22;6085;49.452;8.502;2023-05-02T03:34:22;8.00;99.90
12049;DHT22;6085;49.452;8.502;2023-05-02T03:38:24;7.90;99.90
12049;DHT22;6085;49.452;8.502;2023-05-02T03:42:28;7.80;99.90
12049;DHT22;6085;49.452;8.502;2023-05-02T03:46:29;7.70;99.90
12049;DHT22;6085;49.452;8.502;2023-05-02T03:50:31;7.70;99.90
12049;DHT22;6085;49.452;8.502;2023-05-02T03:54:33;7.70;99.90
12049;DHT22;6085;49.452;8.502;2023-05-02T03:58:37;7.60;99.90
12049;DHT22;6085;49.452;8.502;2023-05-02T04:02:39;7.60;99.90
12049;DHT22;6085;49.452;8.502;2023-05-02T04:06:41;7.50;99.90
12049;DHT22;6085;49.452;8.502;2023-05-02T04:10:43;7.50;99.90
12049;DHT22;6085;49.452;8.502;2023-05-02T04:14:46;7.50;99.90
12049;DHT22;6085;49.452;8.502;2023-05-02T04:18:48;7.50;99.90
12049;DHT22;6085;49.452;8.502;2023-05-02T04:22:51;7.40;99.90
12049;DHT22;6085;49.452;8.502;2023-05-02T04:26:53;7.50;99.90
12049;DHT22;6085;49.452;8.502;2023-05-02T04:30:57;7.60;99.90
12049;DHT22;6085;49.452;8.502;2023-05-02T04:35:02;7.70;99.90
12049;DHT22;6085;49.452;8.502;2023-05-02T04:39:05;7.70;99.90
12049;DHT22;6085;49.452;8.502;2023-05-02T04:43:10;7.70;99.90
12049;DHT22;6085;49.452;8.502;2023-05-02T04:47:13;7.80;99.90
12049;DHT22;6085;49.452;8.502;2023-05-02T04:51:15;8.00;99.90
12049;DHT22;6085;49.452;8.502;2023-05-02T04:55:17;8.30;99.90
12049;DHT22;6085;49.452;8.502;2023-05-02T04:59:19;8.40;99.90
12049;DHT22;6085;49.452;8.502;2023-05-02T05:03:23;8.70;99.90
12049;DHT22;6085;49.452;8.502;2023-05-02T05:07:25;9.00;99.90
12049;DHT22;6085;49.452;8.502;2023-05-02T05:11:27;9.40;99.90
12049;DHT22;6085;49.452;8.502;2023-05-02T05:15:29;9.90;99.90
12049;DHT22;6085;49.452;8.502;2023-05-02T05:19:32;10.40;99.90
12049;DHT22;6085;49.452;8.502;2023-05-02T05:23:34;10.80;99.90
12049;DHT22;6085;49.452;8.502;2023-05-02T05:27:37;11.20;99.90
12049;DHT22;6085;49.452;8.502;2023-05-02T05:31:39;11.50;99.90
12049;DHT22;6085;49.452;8.502;2023-05-02T05:35:43;12.10;99.90
12049;DHT22;6085;49.452;8.502;2023-05-02T05:39:45;12.70;99.90
12049;DHT22;6085;49.452;8.502;2023-05-02T05:43:47;13.20;99.90
12049;DHT22;6085;49.452;8.502;2023-05-02T05:47:49;13.70;99.90
12049;DHT22;6085;49.452;8.502;2023-05-02T05:51:52;14.00;99.90
12049;DHT22;6085;49.452;8.502;2023-05-02T05:55:54;13.80;99.90
12049;DHT22;6085;49.452;8.502;2023-05-02T05:59:57;13.60;99.90
12049;DHT22;6085;49.452;8.502;2023-05-02T06:03:59;13.60;99.90
12049;DHT22;6085;49.452;8.502;2023-05-02T06:08:04;13.80;99.90
12049;DHT22;6085;49.452;8.502;2023-05-02T06:12:06;14.20;99.90
12049;DHT22;6085;49.452;8.502;2023-05-02T06:16:08;14.80;99.90
12049;DHT22;6085;49.452;8.502;2023-05-02T06:20:10;15.00;99.90
12049;DHT22;6085;49.452;8.502;2023-05-02T06:24:13;15.30;99.90
12049;DHT22;6085;49.452;8.502;2023-05-02T06:28:15;15.60;99.90
12049;DHT22;6085;49.452;8.502;2023-05-02T06:32:17;15.40;99.90
12049;DHT22;6085;49.452;8.502;2023-05-02T06:36:19;15.00;99.90
12049;DHT22;6085;49.452;8.502;2023-05-02T06:40:23;14.70;99.90
12049;DHT22;6085;49.452;8.502;2023-05-02T06:44:25;14.70;99.90
12049;DHT22;6085;49.452;8.502;2023-05-02T06:48:27;15.10;99.90
12049;DHT22;6085;49.452;8.502;2023-05-02T06:52:29;15.70;99.90
12049;DHT22;6085;49.452;8.502;2023-05-02T06:56:32;15.70;99.90
12049;DHT22;6085;49.452;8.502;2023-05-02T07:00:34;15.60;99.90
12049;DHT22;6085;49.452;8.502;2023-05-02T07:04:36;15.70;99.90
12049;DHT22;6085;49.452;8.502;2023-05-02T07:08:38;16.30;99.90
12049;DHT22;6085;49.452;8.502;2023-05-02T07:12:41;17.10;99.90
12049;DHT22;6085;49.452;8.502;2023-05-02T07:16:43;17.60;99.90
12049;DHT22;6085;49.452;8.502;2023-05-02T07:20:45;17.50;99.90
12049;DHT22;6085;49.452;8.502;2023-05-02T07:24:47;17.50;99.90
12049;DHT22;6085;49.452;8.502;2023-05-02T07:28:51;19.30;99.90
12049;DHT22;6085;49.452;8.502;2023-05-02T07:32:52;20.90;99.90
12049;DHT22;6085;49.452;8.502;2023-05-02T07:36:54;21.80;99.90
12049;DHT22;6085;49.452;8.502;2023-05-02T07:40:57;22.60;99.90
12049;DHT22;6085;49.452;8.502;2023-05-02T07:45:01;23.60;99.90
12049;DHT22;6085;49.452;8.502;2023-05-02T07:49:03;24.60;99.90
12049;DHT22;6085;49.452;8.502;2023-05-02T07:53:05;23.70;99.90
12049;DHT22;6085;49.452;8.502;2023-05-02T07:57:07;22.60;99.90
12049;DHT22;6085;49.452;8.502;2023-05-02T08:01:11;21.80;99.90
12049;DHT22;6085;49.452;8.502;2023-05-02T08:05:13;20.90;99.90
12049;DHT22;6085;49.452;8.502;2023-05-02T08:09:14;21.80;99.90
12049;DHT22;6085;49.452;8.502;2023-05-02T08:13:16;21.60;99.90
12049;DHT22;6085;49.452;8.502;2023-05-02T08:17:20;21.60;99.90
12049;DHT22;6085;49.452;8.502;2023-05-02T08:21:22;20.90;99.90
12049;DHT22;6085;49.452;8.502;2023-05-02T08:25:24;19.80;99.90
12049;DHT22;6085;49.452;8.502;2023-05-02T08:29:26;19.40;99.90
12049;DHT22;6085;49.452;8.502;2023-05-02T08:33:29;20.80;99.90
12049;DHT22;6085;49.452;8.502;2023-05-02T08:37:31;21.50;99.90
12049;DHT22;6085;49.452;8.502;2023-05-02T08:41:33;22.70;99.90
12049;DHT22;6085;49.452;8.502;2023-05-02T08:45:38;22.00;99.90
12049;DHT22;6085;49.452;8.502;2023-05-02T08:49:42;21.70;99.90
12049;DHT22;6085;49.452;8.502;2023-05-02T08:53:45;23.80;99.90
12049;DHT22;6085;49.452;8.502;2023-05-02T08:57:47;25.80;99.00
12049;DHT22;6085;49.452;8.502;2023-05-02T09:01:54;26.10;95.80
12049;DHT22;6085;49.452;8.502;2023-05-02T09:06:06;24.90;97.20
12049;DHT22;6085;49.452;8.502;2023-05-02T09:10:09;24.00;97.70
12049;DHT22;6085;49.452;8.502;2023-05-02T09:14:13;23.30;98.90
12049;DHT22;6085;49.452;8.502;2023-05-02T09:18:19;21.40;99.90
12049;DHT22;6085;49.452;8.502;2023-05-02T09:22:24;20.00;99.90
12049;DHT22;6085;49.452;8.502;2023-05-02T09:26:27;20.10;99.90
12049;DHT22;6085;49.452;8.502;2023-05-02T09:30:31;19.60;99.90
12049;DHT22;6085;49.452;8.502;2023-05-02T09:34:33;18.90;99.90
12049;DHT22;6085;49.452;8.502;2023-05-02T09:38:38;19.10;99.90
12049;DHT22;6085;49.452;8.502;2023-05-02T09:42:41;19.90;99.90
12049;DHT22;6085;49.452;8.502;2023-05-02T09:46:44;19.90;99.90
12049;DHT22;6085;49.452;8.502;2023-05-02T09:50:46;19.10;99.90
12049;DHT22;6085;49.452;8.502;2023-05-02T09:54:49;18.30;99.90
12049;DHT22;6085;49.452;8.502;2023-05-02T09:59:11;17.90;99.90
12049;DHT22;6085;49.452;8.502;2023-05-02T10:03:16;17.30;99.90
12049;DHT22;6085;49.452;8.502;2023-05-02T10:07:18;16.70;99.90
12049;DHT22;6085;49.452;8.502;2023-05-02T10:11:22;16.30;99.90
12049;DHT22;6085;49.452;8.502;2023-05-02T10:15:26;15.90;99.90
12049;DHT22;6085;49.452;8.502;2023-05-02T10:19:37;15.40;99.90
12049;DHT22;6085;49.452;8.502;2023-05-02T10:23:42;15.20;99.90
12049;DHT22;6085;49.452;8.502;2023-05-02T10:27:45;15.20;99.90
12049;DHT22;6085;49.452;8.502;2023-05-02T10:31:48;15.40;99.90
12049;DHT22;6085;49.452;8.502;2023-05-02T10:35:51;15.60;99.90
12049;DHT22;6085;49.452;8.502;2023-05-02T10:39:52;15.90;99.90
12049;DHT22;6085;49.452;8.502;2023-05-02T10:43:56;16.30;99.90
12049;DHT22;6085;49.452;8.502;2023-05-02T10:48:16;16.70;99.90
12049;DHT22;6085;49.452;8.502;2023-05-02T10:52:25;17.20;99.90
12049;DHT22;6085;49.452;8.502;2023-05-02T10:56:28;18.90;99.90
12049;DHT22;6085;49.452;8.502;2023-05-02T11:00:32;21.40;99.90
12049;DHT22;6085;49.452;8.502;2023-05-02T11:05:00;23.70;99.90
12049;DHT22;6085;49.452;8.502;2023-05-02T11:09:33;25.00;96.10
12049;DHT22;6085;49.452;8.502;2023-05-02T11:13:50;25.60;95.00
12049;DHT22;6085;49.452;8.502;2023-05-02T11:18:00;26.20;93.50
12049;DHT22;6085;49.452;8.502;2023-05-02T11:22:32;25.90;90.80
12049;DHT22;6085;49.452;8.502;2023-05-02T11:26:34;25.60;90.90
12049;DHT22;6085;49.452;8.502;2023-05-02T11:30:41;25.90;90.10
12049;DHT22;6085;49.452;8.502;2023-05-02T11:34:49;25.00;90.30
12049;DHT22;6085;49.452;8.502;2023-05-02T11:38:52;24.50;91.00
12049;DHT22;6085;49.452;8.502;2023-05-02T11:42:55;24.30;91.90
12049;DHT22;6085;49.452;8.502;2023-05-02T11:46:57;22.50;92.80
12049;DHT22;6085;49.452;8.502;2023-05-02T11:51:00;21.60;94.10
12049;DHT22;6085;49.452;8.502;2023-05-02T11:55:07;22.20;92.50
12049;DHT22;6085;49.452;8.502;2023-05-02T11:59:11;22.20;93.30
12049;DHT22;6085;49.452;8.502;2023-05-02T12:03:20;22.80;92.90
12049;DHT22;6085;49.452;8.502;2023-05-02T12:07:35;22.70;93.20
12049;DHT22;6085;49.452;8.502;2023-05-02T12:11:37;23.20;94.00
12049;DHT22;6085;49.452;8.502;2023-05-02T12:15:39;22.90;94.00
12049;DHT22;6085;49.452;8.502;2023-05-02T12:19:41;21.80;95.40
12049;DHT22;6085;49.452;8.502;2023-05-02T12:23:45;21.00;95.40
12049;DHT22;6085;49.452;8.502;2023-05-02T12:28:00;20.80;94.90
12049;DHT22;6085;49.452;8.502;2023-05-02T12:32:03;21.20;94.80
12049;DHT22;6085;49.452;8.502;2023-05-02T12:36:06;21.10;95.50
12049;DHT22;6085;49.452;8.502;2023-05-02T12:40:16;21.10;95.30
12049;DHT22;6085;49.452;8.502;2023-05-02T12:44:34;21.20;95.80
12049;DHT22;6085;49.452;8.502;2023-05-02T12:48:36;21.30;95.80
12049;DHT22;6085;49.452;8.502;2023-05-02T12:52:48;21.50;95.10
12049;DHT22;6085;49.452;8.502;2023-05-02T12:56:52;21.60;95.10
12049;DHT22;6085;49.452;8.502;2023-05-02T13:00:53;22.30;94.70
12049;DHT22;6085;49.452;8.502;2023-05-02T13:04:55;22.90;94.00
12049;DHT22;6085;49.452;8.502;2023-05-02T13:08:58;22.90;93.30
12049;DHT22;6085;49.452;8.502;2023-05-02T13:13:01;22.40;94.30
12049;DHT22;6085;49.452;8.502;2023-05-02T13:17:03;22.60;93.90
12049;DHT22;6085;49.452;8.502;2023-05-02T13:21:07;22.60;93.60
12049;DHT22;6085;49.452;8.502;2023-05-02T13:25:09;22.50;92.70
12049;DHT22;6085;49.452;8.502;2023-05-02T13:29:13;22.30;92.20
12049;DHT22;6085;49.452;8.502;2023-05-02T13:33:15;22.00;92.50
12049;DHT22;6085;49.452;8.502;2023-05-02T13:37:17;21.50;92.80
12049;DHT22;6085;49.452;8.502;2023-05-02T13:41:19;21.20;92.90
12049;DHT22;6085;49.452;8.502;2023-05-02T13:45:22;20.70;92.60
12049;DHT22;6085;49.452;8.502;2023-05-02T13:49:24;20.40;93.20
12049;DHT22;6085;49.452;8.502;2023-05-02T13:53:26;20.10;94.00
12049;DHT22;6085;49.452;8.502;2023-05-02T13:57:28;20.10;94.60
12049;DHT22;6085;49.452;8.502;2023-05-02T14:01:31;20.00;94.40
12049;DHT22;6085;49.452;8.502;2023-05-02T14:05:33;19.90;93.90
12049;DHT22;6085;49.452;8.502;2023-05-02T14:09:36;19.60;94.70
12049;DHT22;6085;49.452;8.502;2023-05-02T14:13:37;19.30;95.60
12049;DHT22;6085;49.452;8.502;2023-05-02T14:17:41;19.60;95.90
12049;DHT22;6085;49.452;8.502;2023-05-02T14:21:43;19.70;95.90
12049;DHT22;6085;49.452;8.502;2023-05-02T14:25:44;20.00;95.70
12049;DHT22;6085;49.452;8.502;2023-05-02T14:29:47;20.40;96.30
12049;DHT22;6085;49.452;8.502;2023-05-02T14:33:50;20.60;96.00
12049;DHT22;6085;49.452;8.502;2023-05-02T14:37:52;20.20;97.20
12049;DHT22;6085;49.452;8.502;2023-05-02T14:41:54;19.70;97.50
12049;DHT22;6085;49.452;8.502;2023-05-02T14:45:56;19.60;98.20
12049;DHT22;6085;49.452;8.502;2023-05-02T14:50:01;19.80;97.40
12049;DHT22;6085;49.452;8.502;2023-05-02T14:54:03;19.50;97.70
12049;DHT22;6085;49.452;8.502;2023-05-02T14:58:06;19.70;97.30
12049;DHT22;6085;49.452;8.502;2023-05-02T15:02:08;19.80;97.40
12049;DHT22;6085;49.452;8.502;2023-05-02T15:06:12;19.80;96.30
12049;DHT22;6085;49.452;8.502;2023-05-02T15:10:14;19.70;95.70
12049;DHT22;6085;49.452;8.502;2023-05-02T15:14:16;19.60;96.40
12049;DHT22;6085;49.452;8.502;2023-05-02T15:18:18;19.40;95.40
12049;DHT22;6085;49.452;8.502;2023-05-02T15:22:22;19.20;95.10
12049;DHT22;6085;49.452;8.502;2023-05-02T15:26:25;18.90;95.70
12049;DHT22;6085;49.452;8.502;2023-05-02T15:30:28;18.80;95.20
12049;DHT22;6085;49.452;8.502;2023-05-02T15:34:30;18.70;94.50
12049;DHT22;6085;49.452;8.502;2023-05-02T15:38:33;18.60;95.60
12049;DHT22;6085;49.452;8.502;2023-05-02T15:42:38;18.50;94.90
12049;DHT22;6085;49.452;8.502;2023-05-02T15:46:41;18.40;95.30
12049;DHT22;6085;49.452;8.502;2023-05-02T15:50:46;18.30;95.70
12049;DHT22;6085;49.452;8.502;2023-05-02T15:54:50;18.20;95.90
12049;DHT22;6085;49.452;8.502;2023-05-02T15:58:52;18.00;97.30
12049;DHT22;6085;49.452;8.502;2023-05-02T16:02:54;17.90;97.10
12049;DHT22;6085;49.452;8.502;2023-05-02T16:06:56;17.90;96.60
12049;DHT22;6085;49.452;8.502;2023-05-02T16:10:59;17.80;97.10
12049;DHT22;6085;49.452;8.502;2023-05-02T16:15:01;17.60;97.50
12049;DHT22;6085;49.452;8.502;2023-05-02T16:19:03;17.60;99.00
12049;DHT22;6085;49.452;8.502;2023-05-02T16:23:12;17.60;99.90
12049;DHT22;6085;49.452;8.502;2023-05-02T16:27:15;17.60;99.90
12049;DHT22;6085;49.452;8.502;2023-05-02T16:31:17;17.60;99.90
12049;DHT22;6085;49.452;8.502;2023-05-02T16:35:19;17.60;99.90
12049;DHT22;6085;49.452;8.502;2023-05-02T16:39:21;17.60;99.90
12049;DHT22;6085;49.452;8.502;2023-05-02T16:43:24;17.40;99.90
12049;DHT22;6085;49.452;8.502;2023-05-02T16:47:26;17.30;99.90
12049;DHT22;6085;49.452;8.502;2023-05-02T16:51:28;17.20;99.90
12049;DHT22;6085;49.452;8.502;2023-05-02T16:55:31;17.20;99.90
12049;DHT22;6085;49.452;8.502;2023-05-02T16:59:34;17.10;99.90
12049;DHT22;6085;49.452;8.502;2023-05-02T17:03:36;17.00;99.90
12049;DHT22;6085;49.452;8.502;2023-05-02T17:07:40;17.10;99.90
12049;DHT22;6085;49.452;8.502;2023-05-02T17:11:42;17.00;99.90
12049;DHT22;6085;49.452;8.502;2023-05-02T17:15:45;17.00;99.90
12049;DHT22;6085;49.452;8.502;2023-05-02T17:19:48;16.90;99.90
12049;DHT22;6085;49.452;8.502;2023-05-02T17:23:50;16.90;99.90
12049;DHT22;6085;49.452;8.502;2023-05-02T17:27:52;16.80;99.90
12049;DHT22;6085;49.452;8.502;2023-05-02T17:31:56;16.70;99.90
12049;DHT22;6085;49.452;8.502;2023-05-02T17:36:00;16.50;99.90
12049;DHT22;6085;49.452;8.502;2023-05-02T17:40:02;16.30;99.90
12049;DHT22;6085;49.452;8.502;2023-05-02T17:44:05;16.20;99.90
12049;DHT22;6085;49.452;8.502;2023-05-02T17:48:08;16.10;99.90
12049;DHT22;6085;49.452;8.502;2023-05-02T17:52:10;15.90;99.90
12049;DHT22;6085;49.452;8.502;2023-05-02T17:56:12;15.80;99.90
12049;DHT22;6085;49.452;8.502;2023-05-02T18:00:18;15.60;99.90
12049;DHT22;6085;49.452;8.502;2023-05-02T18:04:21;15.50;99.90
12049;DHT22;6085;49.452;8.502;2023-05-02T18:08:24;15.40;99.90
12049;DHT22;6085;49.452;8.502;2023-05-02T18:12:26;15.30;99.90
12049;DHT22;6085;49.452;8.502;2023-05-02T18:16:28;15.10;99.90
12049;DHT22;6085;49.452;8.502;2023-05-02T18:20:37;14.90;99.90
12049;DHT22;6085;49.452;8.502;2023-05-02T18:24:40;14.80;99.90
12049;DHT22;6085;49.452;8.502;2023-05-02T18:28:42;14.70;99.90
12049;DHT22;6085;49.452;8.502;2023-05-02T18:32:46;14.50;99.90
12049;DHT22;6085;49.452;8.502;2023-05-02T18:36:49;14.30;99.90
12049;DHT22;6085;49.452;8.502;2023-05-02T18:40:52;14.20;99.90
12049;DHT22;6085;49.452;8.502;2023-05-02T18:44:54;14.00;99.90
12049;DHT22;6085;49.452;8.502;2023-05-02T18:48:55;13.90;99.90
12049;DHT22;6085;49.452;8.502;2023-05-02T18:52:59;13.80;99.90
12049;DHT22;6085;49.452;8.502;2023-05-02T18:57:01;13.80;99.90
12049;DHT22;6085;49.452;8.502;2023-05-02T19:01:10;13.60;99.90
12049;DHT22;6085;49.452;8.502;2023-05-02T19:05:13;13.50;99.90
12049;DHT22;6085;49.452;8.502;2023-05-02T19:09:16;13.40;99.90
12049;DHT22;6085;49.452;8.502;2023-05-02T19:13:19;13.30;99.90
12049;DHT22;6085;49.452;8.502;2023-05-02T19:17:22;13.10;99.90
12049;DHT22;6085;49.452;8.502;2023-05-02T19:21:25;13.10;99.90
12049;DHT22;6085;49.452;8.502;2023-05-02T19:25:28;13.00;99.90
12049;DHT22;6085;49.452;8.502;2023-05-02T19:29:30;12.80;99.90
12049;DHT22;6085;49.452;8.502;2023-05-02T19:33:32;12.70;99.90
12049;DHT22;6085;49.452;8.502;2023-05-02T19:37:34;12.70;99.90
12049;DHT22;6085;49.452;8.502;2023-05-02T19:41:37;12.50;99.90
12049;DHT22;6085;49.452;8.502;2023-05-02T19:45:42;12.50;99.90
12049;DHT22;6085;49.452;8.502;2023-05-02T19:49:43;12.30;99.90
12049;DHT22;6085;49.452;8.502;2023-05-02T19:53:46;12.20;99.90
12049;DHT22;6085;49.452;8.502;2023-05-02T19:57:49;12.10;99.90
12049;DHT22;6085;49.452;8.502;2023-05-02T20:01:51;11.90;99.90
12049;DHT22;6085;49.452;8.502;2023-05-02T20:05:53;11.90;99.90
12049;DHT22;6085;49.452;8.502;2023-05-02T20:09:57;11.70;99.90
12049;DHT22;6085;49.452;8.502;2023-05-02T20:14:00;11.70;99.90
12049;DHT22;6085;49.452;8.502;2023-05-02T20:18:02;11.60;99.90
12049;DHT22;6085;49.452;8.502;2023-05-02T20:22:04;11.50;99.90
12049;DHT22;6085;49.452;8.502;2023-05-02T20:26:06;11.50;99.90
12049;DHT22;6085;49.452;8.502;2023-05-02T20:30:10;11.40;99.90
12049;DHT22;6085;49.452;8.502;2023-05-02T20:34:12;11.30;99.90
12049;DHT22;6085;49.452;8.502;2023-05-02T20:38:14;11.20;99.90
12049;DHT22;6085;49.452;8.502;2023-05-02T20:42:20;11.10;99.90
12049;DHT22;6085;49.452;8.502;2023-05-02T20:46:25;11.00;99.90
12049;DHT22;6085;49.452;8.502;2023-05-02T20:50:27;10.90;99.90
12049;DHT22;6085;49.452;8.502;2023-05-02T20:54:29;10.80;99.90
12049;DHT22;6085;49.452;8.502;2023-05-02T20:58:31;10.80;99.90
12049;DHT22;6085;49.452;8.502;2023-05-02T21:02:34;10.80;99.90
12049;DHT22;6085;49.452;8.502;2023-05-02T21:06:36;10.70;99.90
12049;DHT22;6085;49.452;8.502;2023-05-02T21:10:38;10.60;99.90
12049;DHT22;6085;49.452;8.502;2023-05-02T21:14:40;10.50;99.90
12049;DHT22;6085;49.452;8.502;2023-05-02T21:18:44;10.40;99.90
12049;DHT22;6085;49.452;8.502;2023-05-02T21:22:46;10.30;99.90
12049;DHT22;6085;49.452;8.502;2023-05-02T21:26:47;10.20;99.90
12049;DHT22;6085;49.452;8.502;2023-05-02T21:30:49;10.20;99.90
12049;DHT22;6085;49.452;8.502;2023-05-02T21:34:52;10.10;99.90
12049;DHT22;6085;49.452;8.502;2023-05-02T21:38:55;10.00;99.90
12049;DHT22;6085;49.452;8.502;2023-05-02T21:42:56;10.00;99.90
12049;DHT22;6085;49.452;8.502;2023-05-02T21:46:58;9.90;99.90
12049;DHT22;6085;49.452;8.502;2023-05-02T21:51:05;9.80;99.90
12049;DHT22;6085;49.452;8.502;2023-05-02T21:55:07;9.80;99.90
12049;DHT22;6085;49.452;8.502;2023-05-02T21:59:09;9.70;99.90
12049;DHT22;6085;49.452;8.502;2023-05-02T22:03:11;9.60;99.90
12049;DHT22;6085;49.452;8.502;2023-05-02T22:07:14;9.60;99.90
12049;DHT22;6085;49.452;8.502;2023-05-02T22:11:16;9.60;99.90
12049;DHT22;6085;49.452;8.502;2023-05-02T22:15:21;9.50;99.90
12049;DHT22;6085;49.452;8.502;2023-05-02T22:19:23;9.40;99.90
12049;DHT22;6085;49.452;8.502;2023-05-02T22:23:26;9.30;99.90
12049;DHT22;6085;49.452;8.502;2023-05-02T22:27:30;9.20;99.90
12049;DHT22;6085;49.452;8.502;2023-05-02T22:31:32;9.20;99.90
12049;DHT22;6085;49.452;8.502;2023-05-02T22:35:35;9.10;99.90
12049;DHT22;6085;49.452;8.502;2023-05-02T22:39:38;9.10;99.90
12049;DHT22;6085;49.452;8.502;2023-05-02T22:43:40;9.00;99.90
12049;DHT22;6085;49.452;8.502;2023-05-02T22:47:42;9.00;99.90
12049;DHT22;6085;49.452;8.502;2023-05-02T22:51:44;8.90;99.90
12049;DHT22;6085;49.452;8.502;2023-05-02T22:55:49;8.80;99.90
12049;DHT22;6085;49.452;8.502;2023-05-02T22:59:52;8.70;99.90
12049;DHT22;6085;49.452;8.502;2023-05-02T23:03:53;8.60;99.90
12049;DHT22;6085;49.452;8.502;2023-05-02T23:07:55;8.60;99.90
12049;DHT22;6085;49.452;8.502;2023-05-02T23:11:58;8.50;99.90
12049;DHT22;6085;49.452;8.502;2023-05-02T23:16:02;8.50;99.90
12049;DHT22;6085;49.452;8.502;2023-05-02T23:20:05;8.40;99.90
12049;DHT22;6085;49.452;8.502;2023-05-02T23:24:09;8.40;99.90
12049;DHT22;6085;49.452;8.502;2023-05-02T23:28:13;8.40;99.90
12049;DHT22;6085;49.452;8.502;2023-05-02T23:32:15;8.30;99.90
12049;DHT22;6085;49.452;8.502;2023-05-02T23:36:17;8.30;99.90
12049;DHT22;6085;49.452;8.502;2023-05-02T23:40:19;8.20;99.90
12049;DHT22;6085;49.452;8.502;2023-05-02T23:44:23;8.20;99.90
12049;DHT22;6085;49.452;8.502;2023-05-02T23:48:24;8.10;99.90
12049;DHT22;6085;49.452;8.502;2023-05-02T23:52:26;8.00;99.90
12049;DHT22;6085;49.452;8.502;2023-05-02T23:56:28;7.90;99.90
